Time;durP1;ratioP1;P1;durP2;ratioP2;P2;SDS_P1;SDS_P2;PMS_P1;PMS_P2;Temp;Humidity;BMP_temperature;BMP_pressure;BME280_temperature;BME280_humidity;BME280_pressure;Samples;Min_cycle;Max_cycle;Signal;HPM_P1;HPM_P2
2023/04/19 00:00:13;;;;;;;1.87;1.20;;;;;;;12.21;42.56;102745.88;4937473;28;97120;-51
2023/04/19 00:02:40;;;;;;;3.57;1.80;;;;;;;12.11;42.23;102735.22;4935422;28;97124;-51
2023/04/19 00:05:06;;;;;;;1.70;1.43;;;;;;;12.03;42.42;102743.78;4935788;28;97496;-51
2023/04/19 00:07:32;;;;;;;1.63;1.53;;;;;;;11.91;42.54;102747.38;4937144;28;97338;-51
2023/04/19 00:09:57;;;;;;;2.33;1.53;;;;;;;11.77;42.53;102736.88;4935387;28;96765;-51
2023/04/19 00:12:23;;;;;;;2.10;1.57;;;;;;;11.73;42.80;102735.47;4935832;28;101009;-52
2023/04/19 00:14:48;;;;;;;1.60;1.50;;;;;;;11.62;42.60;102735.81;4936509;28;98015;-50
2023/04/19 00:17:13;;;;;;;2.17;1.97;;;;;;;11.59;42.62;102733.97;4935430;28;103345;-50
2023/04/19 00:19:38;;;;;;;1.13;1.03;;;;;;;11.59;42.79;102733.19;4935364;28;97323;-51
2023/04/19 00:22:04;;;;;;;2.17;1.43;;;;;;;11.42;43.01;102727.09;4936163;28;96880;-51
2023/04/19 00:24:29;;;;;;;1.90;1.80;;;;;;;11.34;42.80;102734.06;4939461;28;97097;-51
2023/04/19 00:26:56;;;;;;;2.70;1.77;;;;;;;11.24;42.99;102726.94;4939172;28;97388;-50
2023/04/19 00:29:21;;;;;;;1.40;1.30;;;;;;;11.18;43.10;102728.75;4931812;28;97205;-50
2023/04/19 00:31:47;;;;;;;2.00;1.60;;;;;;;11.11;42.99;102723.47;4938120;28;97678;-51
2023/04/19 00:34:12;;;;;;;1.43;1.23;;;;;;;11.06;43.06;102729.53;4933283;28;97099;-50
2023/04/19 00:36:37;;;;;;;1.30;1.20;;;;;;;11.06;43.35;102718.50;4934800;28;97150;-50
2023/04/19 00:39:03;;;;;;;2.10;1.53;;;;;;;11.01;43.20;102722.59;4938037;28;97120;-51
2023/04/19 00:41:28;;;;;;;2.33;1.70;;;;;;;10.94;43.15;102722.81;4934700;28;97042;-51
2023/04/19 00:43:53;;;;;;;2.40;2.20;;;;;;;10.89;43.11;102728.13;4934742;28;97911;-50
2023/04/19 00:46:19;;;;;;;1.13;1.13;;;;;;;10.81;43.36;102722.09;4936288;28;97008;-51
2023/04/19 00:48:45;;;;;;;2.00;1.80;;;;;;;10.70;43.21;102729.94;4940423;28;97124;-52
2023/04/19 00:51:11;;;;;;;1.60;1.50;;;;;;;10.66;43.67;102718.25;4936765;28;96765;-50
2023/04/19 00:53:37;;;;;;;2.00;1.57;;;;;;;10.64;43.52;102722.69;4934600;28;97797;-50
2023/04/19 00:56:04;;;;;;;1.33;1.23;;;;;;;10.61;43.62;102724.34;4935279;28;96683;-51
2023/04/19 00:58:30;;;;;;;1.43;1.33;;;;;;;10.57;43.56;102718.19;4938198;28;96912;-51
2023/04/19 01:00:56;;;;;;;2.43;1.33;;;;;;;10.53;43.74;102723.00;4934637;28;96890;-50
2023/04/19 01:03:21;;;;;;;1.30;1.10;;;;;;;10.51;43.74;102717.94;4935643;28;96810;-50
2023/04/19 01:05:47;;;;;;;1.37;1.27;;;;;;;10.52;43.80;102715.97;4932097;28;97499;-51
2023/04/19 01:08:13;;;;;;;1.40;1.30;;;;;;;10.43;43.71;102711.13;4936598;28;96939;-50
2023/04/19 01:10:38;;;;;;;1.80;1.33;;;;;;;10.37;43.89;102715.66;4936186;28;96626;-50
2023/04/19 01:13:04;;;;;;;1.33;1.23;;;;;;;10.30;43.82;102713.13;4934950;28;97563;-50
2023/04/19 01:15:30;;;;;;;1.33;1.23;;;;;;;10.26;44.21;102723.47;4935590;28;97356;-50
2023/04/19 01:17:56;;;;;;;3.23;2.37;;;;;;;10.22;44.23;102711.03;4936044;28;97086;-50
2023/04/19 01:20:21;;;;;;;2.70;1.20;;;;;;;10.19;44.36;102712.66;4932485;28;97178;-51
2023/04/19 01:22:47;;;;;;;2.60;1.30;;;;;;;10.18;44.29;102713.88;4935774;28;98134;-50
2023/04/19 01:25:12;;;;;;;1.03;1.00;;;;;;;10.16;44.36;102715.50;4936177;28;97413;-50
2023/04/19 01:27:37;;;;;;;1.47;1.37;;;;;;;10.08;44.15;102712.19;4932276;28;96635;-50
2023/04/19 01:30:03;;;;;;;1.93;1.40;;;;;;;10.00;44.44;102710.88;4933636;28;96862;-51
2023/04/19 01:32:29;;;;;;;1.33;1.23;;;;;;;9.99;44.61;102703.81;4934937;28;96954;-50
2023/04/19 01:34:54;;;;;;;2.40;1.33;;;;;;;9.95;44.58;102710.63;4935018;28;97409;-51
2023/04/19 01:37:19;;;;;;;1.77;1.50;;;;;;;9.87;44.52;102718.31;4935606;28;97179;-50
2023/04/19 01:39:45;;;;;;;2.20;1.47;;;;;;;9.82;44.65;102710.59;4933804;28;97520;-51
2023/04/19 01:42:10;;;;;;;2.00;1.57;;;;;;;9.80;44.55;102710.28;4936277;28;100718;-51
2023/04/19 01:44:36;;;;;;;1.10;1.00;;;;;;;9.75;44.82;102725.31;4935436;28;97176;-51
2023/04/19 01:47:01;;;;;;;1.70;1.33;;;;;;;9.72;44.85;102711.66;4931386;28;97495;-51
2023/04/19 01:49:26;;;;;;;1.43;1.33;;;;;;;9.69;44.85;102715.28;4931231;28;96779;-51
2023/04/19 01:51:52;;;;;;;1.73;1.10;;;;;;;9.65;44.97;102698.13;4933722;28;97398;-51
2023/04/19 01:54:17;;;;;;;1.20;1.07;;;;;;;9.63;45.00;102706.81;4935498;28;97701;-51
2023/04/19 01:56:42;;;;;;;1.93;1.47;;;;;;;9.53;45.01;102702.38;4933650;28;97028;-50
2023/04/19 01:59:08;;;;;;;1.47;1.33;;;;;;;9.49;45.07;102701.72;4932316;28;96875;-50
2023/04/19 02:01:33;;;;;;;1.37;1.27;;;;;;;9.41;45.32;102696.84;4933197;28;97066;-51
2023/04/19 02:03:58;;;;;;;1.40;1.30;;;;;;;9.37;45.04;102705.16;4934337;28;97109;-52
2023/04/19 02:06:25;;;;;;;1.33;1.23;;;;;;;9.35;45.37;102701.34;4933268;28;96752;-51
2023/04/19 02:08:51;;;;;;;1.43;1.33;;;;;;;9.30;45.40;102704.59;4933947;28;97373;-50
2023/04/19 02:11:16;;;;;;;1.40;1.30;;;;;;;9.21;45.47;102701.72;4931786;28;98100;-50
2023/04/19 02:13:42;;;;;;;1.20;1.10;;;;;;;9.09;45.68;102700.44;4933664;28;97730;-51
2023/04/19 02:16:09;;;;;;;1.00;1.00;;;;;;;9.10;45.79;102698.47;4936563;28;97343;-51
2023/04/19 02:18:37;;;;;;;2.23;1.10;;;;;;;9.10;45.71;102698.47;4933251;28;96879;-51
2023/04/19 02:21:03;;;;;;;1.30;1.20;;;;;;;9.08;45.75;102704.41;4933198;28;97356;-53
2023/04/19 02:23:28;;;;;;;1.77;1.20;;;;;;;9.01;45.94;102710.06;4937018;28;97781;-50
2023/04/19 02:25:53;;;;;;;1.10;1.10;;;;;;;9.00;46.09;102703.78;4936533;28;96837;-50
2023/04/19 02:28:19;;;;;;;2.33;1.20;;;;;;;8.98;45.86;102710.91;4933322;28;97059;-50
2023/04/19 02:30:44;;;;;;;1.40;1.30;;;;;;;8.88;46.10;102709.22;4932170;28;97885;-52
2023/04/19 02:33:09;;;;;;;1.30;1.20;;;;;;;8.83;46.21;102702.28;4933048;28;97036;-50
2023/04/19 02:35:35;;;;;;;1.00;1.00;;;;;;;8.74;46.15;102710.34;4938909;28;97102;-51
2023/04/19 02:38:02;;;;;;;1.20;1.10;;;;;;;8.71;46.39;102713.19;4940106;28;96921;-50
2023/04/19 02:40:27;;;;;;;1.17;1.17;;;;;;;8.70;46.46;102714.38;4934786;28;96934;-50
2023/04/19 02:42:52;;;;;;;1.20;1.10;;;;;;;8.70;46.42;102709.66;4932168;28;96674;-50
2023/04/19 02:45:17;;;;;;;3.47;1.33;;;;;;;8.67;46.48;102707.75;4934550;28;97599;-50
2023/04/19 02:47:45;;;;;;;1.20;1.03;;;;;;;8.62;46.61;102715.75;4933321;28;96775;-51
2023/04/19 02:50:10;;;;;;;1.30;1.20;;;;;;;8.64;46.79;102707.84;4934538;28;97138;-50
2023/04/19 02:52:36;;;;;;;4.93;1.50;;;;;;;8.66;46.55;102702.72;4938236;28;97216;-51
2023/04/19 02:55:01;;;;;;;1.43;1.33;;;;;;;8.69;46.61;102710.09;4934320;28;97096;-50
2023/04/19 02:57:27;;;;;;;2.20;1.37;;;;;;;8.65;46.62;102699.19;4936114;28;96962;-51
2023/04/19 02:59:52;;;;;;;3.37;1.47;;;;;;;8.63;46.59;102701.59;4936702;28;101916;-52
2023/04/19 03:02:17;;;;;;;1.47;1.20;;;;;;;8.61;46.58;102698.50;4940738;28;97328;-50
2023/04/19 03:04:43;;;;;;;1.20;1.10;;;;;;;8.59;46.88;102717.38;4939844;28;97124;-50
2023/04/19 03:07:09;;;;;;;1.40;1.30;;;;;;;8.53;46.82;102699.88;4935822;28;100261;-50
2023/04/19 03:09:34;;;;;;;3.07;1.40;;;;;;;8.47;47.10;102704.34;4937468;28;96659;-51
2023/04/19 03:12:00;;;;;;;1.97;1.20;;;;;;;8.45;47.17;102705.97;4936920;28;97451;-50
2023/04/19 03:14:25;;;;;;;2.13;1.30;;;;;;;8.43;47.04;102700.88;4937288;28;96854;-50
2023/04/19 03:16:51;;;;;;;1.53;1.07;;;;;;;8.43;47.32;102702.88;4935332;28;97121;-51
2023/04/19 03:19:16;;;;;;;4.10;1.37;;;;;;;8.44;47.13;102691.47;4934471;28;96867;-51
2023/04/19 03:21:41;;;;;;;1.20;1.10;;;;;;;8.39;46.97;102696.72;4934268;28;98158;-50
2023/04/19 03:24:07;;;;;;;1.30;1.20;;;;;;;8.34;47.34;102686.22;4938378;28;97170;-50
2023/04/19 03:26:32;;;;;;;1.13;1.00;;;;;;;8.26;47.36;102688.34;4938571;28;97266;-51
2023/04/19 03:28:57;;;;;;;2.67;1.10;;;;;;;8.25;47.35;102695.03;4938573;28;97378;-50
2023/04/19 03:31:23;;;;;;;2.30;1.00;;;;;;;8.27;47.47;102682.47;4936821;28;97078;-51
2023/04/19 03:33:48;;;;;;;1.20;1.00;;;;;;;8.25;47.36;102679.38;4939000;28;97422;-51
2023/04/19 03:36:14;;;;;;;1.10;1.10;;;;;;;8.20;47.63;102681.81;4938390;28;96929;-50
2023/04/19 03:38:39;;;;;;;0.90;0.90;;;;;;;8.17;47.53;102683.44;4936124;28;97264;-51
2023/04/19 03:41:16;;;;;;;3.57;1.37;;;;;;;8.17;47.66;102677.16;4937299;28;97507;-50
2023/04/19 03:43:42;;;;;;;0.90;0.90;;;;;;;8.13;47.42;102680.00;4936500;28;97250;-50
2023/04/19 03:46:07;;;;;;;1.40;1.30;;;;;;;8.13;47.42;102673.75;4943891;28;97191;-50
2023/04/19 03:48:34;;;;;;;1.27;1.17;;;;;;;8.13;47.79;102671.78;4934148;28;98789;-50
2023/04/19 03:50:59;;;;;;;1.97;1.20;;;;;;;8.13;47.71;102680.00;4935376;28;98416;-51
2023/04/19 03:53:25;;;;;;;2.40;1.37;;;;;;;8.12;47.76;102673.00;4936881;28;102212;-51
2023/04/19 03:55:50;;;;;;;1.30;1.00;;;;;;;8.15;47.66;102683.09;4936201;28;97222;-51
2023/04/19 03:58:15;;;;;;;4.00;1.37;;;;;;;8.15;47.63;102677.59;4933254;28;98607;-50
2023/04/19 04:00:41;;;;;;;1.20;1.10;;;;;;;8.18;47.51;102681.47;4935242;28;97529;-51
2023/04/19 04:03:06;;;;;;;2.07;1.50;;;;;;;8.15;47.65;102679.56;4933525;28;97121;-50
2023/04/19 04:05:31;;;;;;;1.30;1.20;;;;;;;8.12;47.55;102683.94;4935374;28;96673;-50
2023/04/19 04:07:57;;;;;;;1.27;1.00;;;;;;;8.08;47.87;102677.75;4935309;28;97874;-51
2023/04/19 04:10:22;;;;;;;3.47;1.20;;;;;;;8.09;47.61;102684.78;4940707;28;97350;-50
2023/04/19 04:12:47;;;;;;;1.17;1.07;;;;;;;8.15;47.71;102682.31;4936647;28;97014;-51
2023/04/19 04:15:13;;;;;;;1.23;1.03;;;;;;;8.17;47.89;102679.91;4936826;28;97004;-51
2023/04/19 04:17:38;;;;;;;1.30;1.13;;;;;;;8.17;47.67;102682.66;4939391;28;97772;-50
2023/04/19 04:20:04;;;;;;;1.80;1.40;;;;;;;8.17;47.83;102679.91;4938105;28;97694;-51
2023/04/19 04:22:30;;;;;;;1.03;1.03;;;;;;;8.16;47.94;102673.69;4932349;28;97344;-50
2023/04/19 04:24:56;;;;;;;1.00;0.80;;;;;;;8.16;47.69;102679.16;4935956;28;97048;-53
2023/04/19 04:27:22;;;;;;;2.50;1.00;;;;;;;8.15;47.99;102671.34;4939383;28;97525;-51
2023/04/19 04:29:48;;;;;;;1.27;1.00;;;;;;;8.14;47.69;102670.59;4934028;28;97308;-50
2023/04/19 04:32:16;;;;;;;5.13;1.40;;;;;;;8.14;47.68;102678.81;4938230;28;96775;-51
2023/04/19 04:34:42;;;;;;;3.07;1.10;;;;;;;8.13;47.91;102681.97;4933648;28;97274;-51
2023/04/19 04:37:07;;;;;;;1.10;1.00;;;;;;;8.16;47.67;102678.38;4937280;28;97283;-50
2023/04/19 04:39:37;;;;;;;0.87;0.87;;;;;;;8.14;48.01;102672.56;4936574;28;96683;-51
2023/04/19 04:42:04;;;;;;;2.60;1.30;;;;;;;8.18;48.05;102675.97;4936510;28;97177;-51
2023/04/19 04:44:29;;;;;;;1.00;1.00;;;;;;;8.20;48.08;102677.09;4936505;28;97009;-50
2023/04/19 04:46:55;;;;;;;1.27;1.17;;;;;;;8.20;48.06;102670.84;4939285;28;97244;-50
2023/04/19 04:49:20;;;;;;;1.37;1.03;;;;;;;8.20;47.94;102685.34;4940357;28;96692;-51
2023/04/19 04:51:46;;;;;;;2.33;1.10;;;;;;;8.23;47.95;102678.97;4933972;28;96889;-51
2023/04/19 04:54:11;;;;;;;1.63;1.10;;;;;;;8.29;47.96;102687.50;4933932;28;96884;-50
2023/04/19 04:56:37;;;;;;;0.83;0.83;;;;;;;8.29;47.74;102677.31;4936673;28;97563;-51
2023/04/19 04:59:02;;;;;;;1.10;1.10;;;;;;;8.29;47.53;102682.81;4935964;28;98534;-51
2023/04/19 05:01:29;;;;;;;1.23;1.13;;;;;;;8.29;48.06;102676.53;4934848;28;97451;-50
2023/04/19 05:03:54;;;;;;;1.30;1.00;;;;;;;8.29;47.58;102677.31;4939577;28;97187;-50
2023/04/19 05:06:20;;;;;;;1.20;1.10;;;;;;;8.27;47.84;102685.22;4939043;28;96754;-51
2023/04/19 05:08:45;;;;;;;2.13;1.13;;;;;;;8.29;47.70;102682.81;4934520;28;97090;-51
2023/04/19 05:11:10;;;;;;;0.97;0.97;;;;;;;8.28;48.16;102681.25;4936194;28;97133;-50
2023/04/19 05:13:36;;;;;;;1.17;1.03;;;;;;;8.28;47.99;102680.47;4935103;28;97803;-50
2023/04/19 05:16:01;;;;;;;1.03;0.90;;;;;;;8.33;48.24;102685.47;4934910;28;97339;-51
2023/04/19 05:18:26;;;;;;;3.13;1.30;;;;;;;8.34;47.94;102678.00;4935709;28;97186;-51
2023/04/19 05:20:52;;;;;;;1.40;1.10;;;;;;;8.36;48.03;102681.88;4934388;28;97462;-51
2023/04/19 05:23:17;;;;;;;2.00;1.20;;;;;;;8.37;48.15;102683.41;4935690;28;97239;-51
2023/04/19 05:25:43;;;;;;;0.90;0.90;;;;;;;8.42;48.30;102685.63;4935136;28;96794;-50
2023/04/19 05:28:08;;;;;;;3.73;0.97;;;;;;;8.47;48.14;102687.88;4934222;28;97062;-51
2023/04/19 05:30:33;;;;;;;1.20;1.10;;;;;;;8.54;48.24;102706.91;4936398;28;96935;-51
2023/04/19 05:32:59;;;;;;;0.83;0.83;;;;;;;8.55;47.92;102688.47;4930190;28;97232;-51
2023/04/19 05:35:25;;;;;;;3.03;1.27;;;;;;;8.65;48.08;102692.94;4934250;28;97010;-51
2023/04/19 05:37:50;;;;;;;1.43;1.17;;;;;;;8.73;48.19;102686.06;4937155;28;97308;-51
2023/04/19 05:40:16;;;;;;;2.23;0.90;;;;;;;8.84;47.88;102684.63;4932033;28;97129;-51
2023/04/19 05:42:42;;;;;;;1.50;1.20;;;;;;;8.94;47.67;102680.03;4937302;28;96972;-50
2023/04/19 05:45:08;;;;;;;1.60;1.17;;;;;;;8.99;47.67;102679.53;4935565;28;97874;-51
2023/04/19 05:47:33;;;;;;;1.23;0.73;;;;;;;9.07;47.65;102678.91;4931137;28;97262;-51
2023/04/19 05:49:58;;;;;;;2.40;0.90;;;;;;;9.16;47.75;102678.28;4934994;28;97343;-51
2023/04/19 05:52:24;;;;;;;0.80;0.80;;;;;;;9.24;47.44;102674.13;4936554;28;97323;-50
2023/04/19 05:54:49;;;;;;;2.30;0.90;;;;;;;9.35;47.45;102679.38;4932419;28;97309;-51
2023/04/19 05:57:15;;;;;;;1.20;1.20;;;;;;;9.44;47.26;102672.00;4934051;28;100094;-52
2023/04/19 05:59:40;;;;;;;1.67;0.90;;;;;;;9.51;47.14;102671.81;4933058;28;97062;-50
2023/04/19 06:02:06;;;;;;;1.33;1.23;;;;;;;9.55;47.20;102677.22;4936403;28;97229;-51
2023/04/19 06:04:31;;;;;;;1.20;1.10;;;;;;;9.56;47.09;102670.53;4930894;28;97139;-51
2023/04/19 06:06:57;;;;;;;3.20;1.37;;;;;;;9.55;47.09;102671.72;4933268;28;97230;-50
2023/04/19 06:09:22;;;;;;;1.07;0.97;;;;;;;9.68;47.20;102675.25;4933575;28;97107;-51
2023/04/19 06:11:48;;;;;;;1.47;1.13;;;;;;;9.75;47.17;102673.09;4932295;28;97114;-51
2023/04/19 06:14:13;;;;;;;1.93;1.27;;;;;;;9.88;47.11;102669.59;4932891;28;97292;-51
2023/04/19 06:16:39;;;;;;;1.50;1.40;;;;;;;9.98;46.97;102669.25;4934240;28;97962;-51
2023/04/19 06:19:06;;;;;;;1.83;1.07;;;;;;;10.11;46.69;102664.56;4934784;28;97285;-50
2023/04/19 06:21:32;;;;;;;1.10;0.93;;;;;;;10.20;46.72;102663.94;4935419;28;97141;-51
2023/04/19 06:23:57;;;;;;;1.87;0.77;;;;;;;10.30;46.63;102671.84;4932632;28;97311;-51
2023/04/19 06:26:23;;;;;;;1.03;0.93;;;;;;;10.32;46.54;102669.41;4941641;28;96753;-51
2023/04/19 06:28:48;;;;;;;1.33;0.83;;;;;;;10.32;46.50;102665.88;4940686;28;96955;-50
2023/04/19 06:31:13;;;;;;;1.10;1.10;;;;;;;10.37;46.18;102668.09;4941527;28;97059;-51
2023/04/19 06:33:39;;;;;;;1.43;1.33;;;;;;;10.32;46.14;102658.41;4936426;28;97613;-51
2023/04/19 06:36:05;;;;;;;1.10;1.10;;;;;;;10.34;46.42;102669.75;4944645;28;97652;-51
2023/04/19 06:38:30;;;;;;;1.53;1.43;;;;;;;10.36;46.00;102661.81;4942901;28;97022;-50
2023/04/19 06:40:55;;;;;;;1.40;1.30;;;;;;;10.43;46.24;102660.81;4940636;28;96936;-50
2023/04/19 06:43:21;;;;;;;1.17;1.17;;;;;;;10.51;46.18;102665.66;4943443;28;100953;-50
2023/04/19 06:45:46;;;;;;;1.00;1.00;;;;;;;10.55;46.22;102658.03;4939787;28;97155;-51
2023/04/19 06:48:12;;;;;;;3.40;1.20;;;;;;;10.60;46.16;102655.94;4942930;28;97544;-51
2023/04/19 06:50:37;;;;;;;0.90;0.80;;;;;;;10.61;46.27;102663.78;4937979;28;96888;-52
2023/04/19 06:53:03;;;;;;;1.57;1.23;;;;;;;10.66;46.25;102665.94;4940374;28;97301;-50
2023/04/19 06:55:28;;;;;;;1.90;1.10;;;;;;;10.70;46.17;102657.59;4940787;28;97058;-51
2023/04/19 06:57:54;;;;;;;2.77;2.50;;;;;;;10.71;45.99;102653.59;4939125;28;97437;-51
2023/04/19 07:00:19;;;;;;;1.80;0.97;;;;;;;10.73;46.08;102648.44;4947111;28;97418;-51
2023/04/19 07:02:45;;;;;;;2.30;1.27;;;;;;;10.88;46.23;102646.72;4942399;28;97548;-51
2023/04/19 07:05:12;;;;;;;1.47;1.00;;;;;;;10.92;45.93;102645.38;4941591;28;97058;-51
2023/04/19 07:07:39;;;;;;;1.87;1.50;;;;;;;11.00;45.63;102643.19;4939393;28;97033;-51
2023/04/19 07:10:06;;;;;;;1.20;1.10;;;;;;;11.10;45.49;102637.28;4939246;28;96939;-51
2023/04/19 07:12:31;;;;;;;1.80;0.90;;;;;;;11.21;45.50;102642.41;4939615;28;97543;-51
2023/04/19 07:14:57;;;;;;;1.53;0.80;;;;;;;11.34;45.63;102632.09;4936768;28;96821;-50
2023/04/19 07:17:22;;;;;;;0.60;0.60;;;;;;;11.43;45.19;102634.13;4937197;28;97112;-51
2023/04/19 07:19:48;;;;;;;1.07;0.97;;;;;;;11.51;44.89;102630.66;4939311;28;97087;-50
2023/04/19 07:22:14;;;;;;;1.90;0.77;;;;;;;11.63;45.23;102631.81;4940675;28;97136;-50
2023/04/19 07:24:40;;;;;;;1.43;0.60;;;;;;;11.73;44.82;102625.19;4940665;28;97075;-51
2023/04/19 07:27:06;;;;;;;1.97;1.00;;;;;;;11.83;44.83;102621.22;4941610;28;97014;-50
2023/04/19 07:29:35;;;;;;;0.80;0.80;;;;;;;11.87;43.77;102619.88;4937744;28;97148;-53
2023/04/19 07:32:01;;;;;;;1.10;1.10;;;;;;;12.00;44.09;102623.31;4940970;28;97407;-51
2023/04/19 07:34:26;;;;;;;0.80;0.77;;;;;;;12.10;43.92;102617.81;4942870;28;96783;-51
2023/04/19 07:36:51;;;;;;;1.53;1.13;;;;;;;12.26;44.01;102618.31;4940986;28;97245;-51
2023/04/19 07:39:17;;;;;;;0.70;0.70;;;;;;;12.42;43.86;102615.31;4934021;28;97298;-51
2023/04/19 07:41:43;;;;;;;1.57;0.60;;;;;;;12.59;43.63;102630.38;4937726;28;97731;-51
2023/04/19 07:44:10;;;;;;;1.40;0.83;;;;;;;12.74;43.10;102602.91;4935303;28;97180;-50
2023/04/19 07:46:36;;;;;;;1.40;0.77;;;;;;;12.87;43.11;102606.28;4933972;28;97187;-50
2023/04/19 07:49:01;;;;;;;1.83;0.70;;;;;;;12.96;42.35;102611.81;4936086;28;97202;-51
2023/04/19 07:51:27;;;;;;;2.40;0.90;;;;;;;13.01;41.46;102611.19;4933085;28;97288;-51
2023/04/19 07:53:53;;;;;;;1.87;0.77;;;;;;;13.13;41.56;102615.03;4933424;28;97136;-51
2023/04/19 07:56:19;;;;;;;0.80;0.80;;;;;;;13.24;41.62;102599.53;4941491;28;96751;-51
2023/04/19 07:58:44;;;;;;;1.33;1.00;;;;;;;13.30;40.69;102605.22;4931059;28;97636;-50
2023/04/19 08:01:10;;;;;;;0.73;0.73;;;;;;;13.29;41.33;102601.69;4935093;28;97304;-51
2023/04/19 08:03:36;;;;;;;0.70;0.70;;;;;;;13.37;40.99;102604.88;4938347;28;97182;-51
2023/04/19 08:06:04;;;;;;;1.50;1.20;;;;;;;13.44;40.75;102599.78;4935784;28;97324;-52
2023/04/19 08:08:30;;;;;;;1.70;1.00;;;;;;;13.56;40.11;102611.13;4936182;28;97352;-52
2023/04/19 08:10:55;;;;;;;3.53;1.20;;;;;;;13.59;40.31;102601.91;4935860;28;97802;-50
2023/04/19 08:13:21;;;;;;;1.17;1.07;;;;;;;13.65;40.13;102600.78;4940881;28;97240;-51
2023/04/19 08:15:46;;;;;;;1.63;0.97;;;;;;;13.83;40.57;102592.44;4937738;28;97155;-52
2023/04/19 08:18:12;;;;;;;1.30;1.20;;;;;;;13.98;39.85;102595.28;4939357;28;97505;-52
2023/04/19 08:20:37;;;;;;;5.30;1.10;;;;;;;13.91;39.07;102592.88;4935494;28;96657;-51
2023/04/19 08:23:05;;;;;;;2.50;1.03;;;;;;;14.00;39.94;102590.81;4936837;28;97459;-50
2023/04/19 08:25:30;;;;;;;0.80;0.80;;;;;;;14.21;39.69;102595.34;4931043;28;96816;-50
2023/04/19 08:27:57;;;;;;;1.30;0.80;;;;;;;14.28;39.02;102580.38;4936283;28;97150;-51
2023/04/19 08:30:23;;;;;;;2.70;1.53;;;;;;;14.28;38.04;102578.34;4934505;28;97045;-51
2023/04/19 08:32:48;;;;;;;1.07;0.70;;;;;;;14.35;38.74;102582.06;4932199;28;97453;-51
2023/04/19 08:35:14;;;;;;;1.10;1.00;;;;;;;14.40;38.26;102573.84;4932768;28;97137;-51
2023/04/19 08:37:39;;;;;;;1.93;0.90;;;;;;;14.45;38.01;102573.22;4933372;28;97305;-50
2023/04/19 08:40:05;;;;;;;1.13;0.90;;;;;;;14.53;36.95;102566.06;4934651;28;97296;-50
2023/04/19 08:42:32;;;;;;;3.00;1.00;;;;;;;14.55;36.68;102573.88;4935702;28;97638;-51
2023/04/19 08:45:01;;;;;;;1.03;1.03;;;;;;;14.59;36.67;102571.72;4933989;28;97520;-51
2023/04/19 08:47:27;;;;;;;1.67;1.40;;;;;;;14.69;37.53;102554.56;4934043;28;97377;-50
2023/04/19 08:49:54;;;;;;;0.80;0.80;;;;;;;14.92;37.82;102552.94;4933122;28;96771;-51
2023/04/19 08:52:20;;;;;;;2.17;1.20;;;;;;;15.08;36.94;102571.13;4936175;28;97294;-50
2023/04/19 08:54:45;;;;;;;0.77;0.77;;;;;;;15.12;36.54;102555.84;4934761;28;97132;-51
2023/04/19 08:57:11;;;;;;;2.70;1.10;;;;;;;15.17;36.45;102546.09;4937777;28;96725;-51
2023/04/19 08:59:36;;;;;;;1.80;1.20;;;;;;;15.28;35.59;102532.41;4933622;28;97441;-51
2023/04/19 09:02:02;;;;;;;1.20;1.10;;;;;;;15.33;35.79;102556.72;4935100;28;97237;-50
2023/04/19 09:04:27;;;;;;;1.20;0.80;;;;;;;15.44;36.19;102543.78;4934687;28;97203;-51
2023/04/19 09:06:54;;;;;;;0.90;0.90;;;;;;;15.56;35.24;102537.19;4936901;28;97181;-50
2023/04/19 09:09:25;;;;;;;1.00;0.90;;;;;;;15.67;34.82;102533.81;4936683;28;97035;-51
2023/04/19 09:11:51;;;;;;;1.03;0.93;;;;;;;15.84;35.92;102526.50;4932808;28;97105;-52
2023/04/19 09:14:18;;;;;;;1.40;1.30;;;;;;;16.00;34.41;102533.53;4934739;28;97115;-50
2023/04/19 09:16:45;;;;;;;1.10;1.10;;;;;;;16.01;35.49;102535.06;4936928;28;96840;-51
2023/04/19 09:19:15;;;;;;;1.90;0.70;;;;;;;16.13;35.67;102528.41;4933916;28;97283;-51
2023/04/19 09:21:41;;;;;;;1.03;0.70;;;;;;;16.34;34.98;102507.69;4936900;28;96992;-50
2023/04/19 09:24:07;;;;;;;2.37;1.13;;;;;;;16.29;34.28;102503.59;4935368;28;97128;-50
2023/04/19 09:26:33;;;;;;;0.97;0.97;;;;;;;16.52;34.90;102503.88;4938106;28;96859;-51
2023/04/19 09:29:09;;;;;;;1.30;1.20;;;;;;;16.63;33.19;102501.22;4936761;28;97910;-51
2023/04/19 09:31:36;;;;;;;1.50;1.20;;;;;;;16.59;32.45;102492.34;4937134;28;97648;-51
2023/04/19 09:34:18;;;;;;;1.20;1.10;;;;;;;16.49;27.85;102475.03;4933573;28;97305;-51
2023/04/19 09:36:43;;;;;;;0.90;0.90;;;;;;;16.63;33.30;102468.66;4933687;28;97226;-52
2023/04/19 09:39:10;;;;;;;1.57;1.10;;;;;;;16.73;32.05;102478.34;4934497;28;97070;-50
2023/04/19 09:41:52;;;;;;;1.20;1.10;;;;;;;16.72;27.56;102492.72;4932970;28;96811;-51
2023/04/19 09:44:19;;;;;;;3.30;1.20;;;;;;;16.82;31.94;102472.63;4934967;28;97056;-50
2023/04/19 09:46:47;;;;;;;1.70;1.60;;;;;;;16.77;31.02;102469.78;4932589;28;96903;-49
2023/04/19 09:49:15;;;;;;;3.70;1.00;;;;;;;16.81;31.41;102478.66;4934729;28;97656;-54
2023/04/19 09:51:42;;;;;;;1.43;1.20;;;;;;;16.92;31.02;102470.44;4937598;28;97097;-51
2023/04/19 09:54:09;;;;;;;1.43;1.00;;;;;;;16.89;31.34;102458.28;4934779;28;96742;-51
2023/04/19 09:56:36;;;;;;;1.67;1.00;;;;;;;17.01;31.71;102453.56;4934482;28;97100;-51
2023/04/19 09:59:02;;;;;;;1.57;1.40;;;;;;;17.13;31.60;102455.94;4934053;28;97549;-52
2023/04/19 10:01:30;;;;;;;4.67;1.03;;;;;;;17.09;29.24;102460.19;4931185;28;96820;-51
2023/04/19 10:03:57;;;;;;;1.10;1.00;;;;;;;17.02;31.09;102463.44;4932444;28;96643;-50
2023/04/19 10:06:23;;;;;;;1.20;1.00;;;;;;;17.05;31.29;102431.88;4935547;28;97599;-50
2023/04/19 10:08:49;;;;;;;1.03;0.97;;;;;;;17.07;30.56;102412.66;4933262;28;97544;-50
2023/04/19 10:11:16;;;;;;;1.13;1.03;;;;;;;17.19;30.68;102428.16;4935229;28;96944;-53
2023/04/19 10:13:43;;;;;;;1.33;1.07;;;;;;;17.30;30.23;102430.28;4932840;28;96769;-51
2023/04/19 10:16:09;;;;;;;1.53;0.87;;;;;;;17.37;30.55;102422.22;4936782;28;96883;-51
2023/04/19 10:18:35;;;;;;;2.60;1.30;;;;;;;17.33;29.33;102421.69;4932613;28;98067;-50
2023/04/19 10:21:07;;;;;;;2.00;1.27;;;;;;;17.31;27.12;102429.75;4934101;28;97178;-53
2023/04/19 10:23:33;;;;;;;2.00;1.10;;;;;;;17.15;29.34;102425.59;4935735;28;96933;-50
2023/04/19 10:25:58;;;;;;;0.83;0.83;;;;;;;17.06;28.18;102406.31;4937584;28;96883;-52
2023/04/19 10:28:27;;;;;;;1.40;1.30;;;;;;;17.08;29.15;102414.94;4931204;28;97346;-50
2023/04/19 10:31:03;;;;;;;2.50;1.10;;;;;;;17.13;25.39;102424.56;4933376;28;97389;-50
2023/04/19 10:33:36;;;;;;;0.80;0.73;;;;;;;17.22;27.77;102416.81;4935540;28;97590;-52
2023/04/19 10:36:02;;;;;;;0.80;0.80;;;;;;;17.29;28.88;102415.59;4933891;28;97211;-52
2023/04/19 10:38:48;;;;;;;0.80;0.80;;;;;;;17.38;26.86;102409.84;4931494;28;97394;-50
2023/04/19 10:41:20;;;;;;;1.73;1.10;;;;;;;17.44;28.78;102410.63;4933058;28;97201;-53
2023/04/19 10:43:56;;;;;;;2.97;1.00;;;;;;;17.73;29.37;102404.72;4931708;28;97187;-51
2023/04/19 10:46:24;;;;;;;1.20;1.10;;;;;;;17.72;28.94;102377.38;4934904;28;97024;-51
2023/04/19 10:48:52;;;;;;;1.30;1.20;;;;;;;17.67;26.57;102398.34;4929610;28;97475;-51
2023/04/19 10:51:31;;;;;;;1.00;0.80;;;;;;;17.77;29.10;102394.13;4932065;28;97301;-50
2023/04/19 10:54:01;;;;;;;2.23;1.07;;;;;;;17.89;27.98;102389.31;4932964;28;97118;-49
2023/04/19 10:56:32;;;;;;;1.07;1.00;;;;;;;18.01;25.05;102385.31;4930291;28;97073;-50
2023/04/19 10:59:01;;;;;;;1.93;1.20;;;;;;;18.17;28.50;102369.91;4930850;28;97324;-49
2023/04/19 11:01:44;;;;;;;3.80;1.23;;;;;;;18.21;24.21;102360.06;4935216;28;97139;-52
2023/04/19 11:04:43;;;;;;;2.10;0.97;;;;;;;18.20;25.88;102349.41;4933489;28;97343;-49
2023/04/19 11:07:08;;;;;;;1.70;1.27;;;;;;;18.26;25.41;102361.34;4931290;28;97039;-52
2023/04/19 11:09:35;;;;;;;1.90;0.80;;;;;;;18.30;27.90;102365.38;4931045;28;98361;-53
2023/04/19 11:12:01;;;;;;;2.80;0.97;;;;;;;18.31;28.26;102352.19;4932998;28;96696;-50
2023/04/19 11:14:29;;;;;;;1.20;1.00;;;;;;;18.53;28.33;102360.59;4936696;28;96813;-50
2023/04/19 11:16:55;;;;;;;1.53;1.33;;;;;;;18.61;27.83;102356.03;4934863;28;97199;-52
2023/04/19 11:19:20;;;;;;;3.37;1.00;;;;;;;18.69;27.85;102348.69;4933488;28;97319;-50
2023/04/19 11:21:47;;;;;;;2.50;1.03;;;;;;;18.87;27.60;102339.06;4936655;28;97127;-50
2023/04/19 11:24:14;;;;;;;1.30;1.20;;;;;;;18.97;28.00;102357.78;4939229;28;96780;-51